createdAt,value
2022-12-15T00:00:17.308Z,-0.81
2022-12-15T00:03:02.948Z,-0.78
2022-12-15T00:05:50.169Z,-0.79
2022-12-15T00:08:36.365Z,-0.77
2022-12-15T00:11:22.321Z,-0.89
2022-12-15T00:14:07.761Z,-0.81
2022-12-15T00:16:53.223Z,-0.77
2022-12-15T00:19:38.667Z,-0.72
2022-12-15T00:22:25.036Z,-0.69
2022-12-15T00:25:10.647Z,-0.68
2022-12-15T00:27:55.978Z,-0.62
2022-12-15T00:30:41.463Z,-0.73
2022-12-15T00:33:29.301Z,-0.72
2022-12-15T00:36:17.816Z,-0.81
2022-12-15T00:38:45.593Z,-0.79
2022-12-15T00:41:16.488Z,-0.84
2022-12-15T00:43:44.305Z,-0.71
2022-12-15T00:46:30.349Z,-0.69
2022-12-15T00:48:57.492Z,-0.63
2022-12-15T00:51:43.664Z,-0.76
2022-12-15T00:54:29.542Z,-0.58
2022-12-15T00:57:15.635Z,-0.69
2022-12-15T01:00:01.235Z,-0.67
2022-12-15T01:02:46.692Z,-0.69
2022-12-15T01:05:32.033Z,-0.65
2022-12-15T01:08:18.492Z,-0.61
2022-12-15T01:11:03.837Z,-0.61
2022-12-15T01:13:49.771Z,-0.64
2022-12-15T01:16:35.793Z,-0.63
2022-12-15T01:19:21.003Z,-0.63
2022-12-15T01:21:49.606Z,-0.65
2022-12-15T01:24:16.465Z,-0.76
2022-12-15T01:26:43.360Z,-0.79
2022-12-15T01:29:10.202Z,-0.85
2022-12-15T01:31:37.088Z,-0.77
2022-12-15T01:34:03.952Z,-0.68
2022-12-15T01:36:31.174Z,-0.73
2022-12-15T01:38:57.976Z,-0.68
2022-12-15T01:41:25.083Z,-0.63
2022-12-15T01:43:51.955Z,-0.67
2022-12-15T01:46:24.807Z,-0.55
2022-12-15T01:49:23.814Z,-0.58
2022-12-15T01:51:56.032Z,-0.71
2022-12-15T01:54:33.587Z,-0.80
2022-12-15T01:57:07.100Z,-0.62
2022-12-15T01:59:39.426Z,-0.58
2022-12-15T02:02:06.488Z,-0.57
2022-12-15T02:04:34.313Z,-0.59
2022-12-15T02:07:01.096Z,-0.82
2022-12-15T02:09:28.581Z,-0.97
2022-12-15T02:11:55.276Z,-0.89
2022-12-15T02:14:44.917Z,-0.79
2022-12-15T02:17:33.781Z,-0.91
2022-12-15T02:20:50.298Z,-0.95
2022-12-15T02:24:32.832Z,-0.92
2022-12-15T02:27:36.876Z,-0.92
2022-12-15T02:30:18.593Z,-0.79
2022-12-15T02:33:01.370Z,-0.77
2022-12-15T02:35:56.150Z,-0.80
2022-12-15T02:38:49.312Z,-0.82
2022-12-15T02:41:36.473Z,-1.03
2022-12-15T02:44:56.481Z,-0.94
2022-12-15T02:47:31.443Z,-0.88
2022-12-15T02:50:25.295Z,-0.84
2022-12-15T02:53:07.043Z,-0.88
2022-12-15T02:56:19.118Z,-0.89
2022-12-15T02:59:33.110Z,-0.80
2022-12-15T03:02:07.590Z,-0.87
2022-12-15T03:04:34.732Z,-0.98
2022-12-15T03:07:09.337Z,-0.98
2022-12-15T03:09:36.350Z,-1.04
2022-12-15T03:12:03.323Z,-1.12
2022-12-15T03:14:30.279Z,-0.98
2022-12-15T03:16:57.193Z,-1.02
2022-12-15T03:19:24.278Z,-0.95
2022-12-15T03:21:51.305Z,-0.96
2022-12-15T03:24:18.095Z,-1.07
2022-12-15T03:26:48.513Z,-1.07
2022-12-15T03:29:16.448Z,-1.12
2022-12-15T03:31:44.369Z,-1.16
2022-12-15T03:34:11.427Z,-1.16
2022-12-15T03:36:38.516Z,-1.15
2022-12-15T03:39:05.599Z,-1.12
2022-12-15T03:41:32.753Z,-1.15
2022-12-15T03:44:00.725Z,-1.12
2022-12-15T03:46:27.742Z,-1.22
2022-12-15T03:48:54.665Z,-1.19
2022-12-15T03:51:21.837Z,-1.29
2022-12-15T03:53:49.275Z,-1.15
2022-12-15T03:56:17.296Z,-1.31
2022-12-15T03:58:44.132Z,-1.23
2022-12-15T04:01:27.938Z,-1.32
2022-12-15T04:04:00.594Z,-1.36
2022-12-15T04:06:29.434Z,-1.46
2022-12-15T04:08:56.264Z,-1.46
2022-12-15T04:11:23.172Z,-1.54
2022-12-15T04:13:50.037Z,-1.56
2022-12-15T04:16:20.191Z,-1.61
2022-12-15T04:19:07.924Z,-1.60
2022-12-15T04:21:34.761Z,-1.63
2022-12-15T04:24:20.277Z,-1.74
2022-12-15T04:27:05.680Z,-1.59
2022-12-15T04:29:51.177Z,-1.76
2022-12-15T04:32:36.435Z,-1.69
2022-12-15T04:35:21.938Z,-1.76
2022-12-15T04:38:07.333Z,-1.72
2022-12-15T04:40:52.974Z,-1.79
2022-12-15T04:43:38.195Z,-1.77
2022-12-15T04:46:23.937Z,-1.69
2022-12-15T04:49:09.687Z,-1.68
2022-12-15T04:51:55.080Z,-1.72
2022-12-15T04:54:40.596Z,-1.93
2022-12-15T04:57:25.987Z,-1.70
2022-12-15T05:00:11.484Z,-1.60
2022-12-15T05:02:56.815Z,-1.54
2022-12-15T05:05:42.179Z,-1.49
2022-12-15T05:08:27.603Z,-1.50
2022-12-15T05:11:12.887Z,-1.51
2022-12-15T05:13:58.270Z,-1.53
2022-12-15T05:16:43.689Z,-1.47
2022-12-15T05:19:29.035Z,-1.45
2022-12-15T05:22:14.622Z,-1.59
2022-12-15T05:25:00.094Z,-1.61
2022-12-15T05:27:45.399Z,-1.66
2022-12-15T05:30:30.722Z,-1.70
2022-12-15T05:32:57.563Z,-1.61
2022-12-15T05:35:24.651Z,-1.80
2022-12-15T05:37:51.655Z,-1.85
2022-12-15T05:40:18.474Z,-1.90
2022-12-15T05:42:49.974Z,-1.85
2022-12-15T05:45:17.192Z,-2.26
2022-12-15T05:47:43.982Z,-2.34
2022-12-15T05:50:10.856Z,-2.37
2022-12-15T05:52:37.684Z,-2.40
2022-12-15T05:55:05.800Z,-2.26
2022-12-15T05:57:32.580Z,-2.31
2022-12-15T05:59:59.370Z,-2.23
2022-12-15T06:02:28.536Z,-2.17
2022-12-15T06:04:55.502Z,-2.47
2022-12-15T06:07:22.457Z,-2.39
2022-12-15T06:09:49.321Z,-2.31
2022-12-15T06:12:16.573Z,-2.21
2022-12-15T06:14:43.391Z,-2.23
2022-12-15T06:17:10.209Z,-2.38
2022-12-15T06:19:37.007Z,-2.29
2022-12-15T06:22:03.862Z,-2.27
2022-12-15T06:24:30.700Z,-2.29
2022-12-15T06:26:57.601Z,-2.34
2022-12-15T06:29:24.480Z,-2.41
2022-12-15T06:31:51.367Z,-2.44
2022-12-15T06:34:19.344Z,-2.43
2022-12-15T06:36:46.355Z,-2.38
2022-12-15T06:39:15.385Z,-2.35
2022-12-15T06:41:43.578Z,-2.53
2022-12-15T06:44:15.558Z,-2.79
2022-12-15T06:46:43.425Z,-2.68
2022-12-15T06:49:10.486Z,-2.51
2022-12-15T06:51:37.626Z,-2.63
2022-12-15T06:54:04.625Z,-2.57
2022-12-15T06:56:38.699Z,-2.43
2022-12-15T06:59:07.468Z,-2.47
2022-12-15T07:01:35.060Z,-2.47
2022-12-15T07:04:04.740Z,-2.45
2022-12-15T07:06:39.320Z,-2.47
2022-12-15T07:09:16.024Z,-2.26
2022-12-15T07:11:42.878Z,-2.18
2022-12-15T07:14:10.413Z,-2.30
2022-12-15T07:16:37.317Z,-2.30
2022-12-15T07:19:04.314Z,-2.49
2022-12-15T07:21:32.033Z,-2.66
2022-12-15T07:24:00.021Z,-2.50
2022-12-15T07:26:27.566Z,-2.62
2022-12-15T07:28:54.650Z,-2.53
2022-12-15T07:31:23.011Z,-2.47
2022-12-15T07:33:52.089Z,-2.30
2022-12-15T07:36:19.116Z,-2.24
2022-12-15T07:38:50.442Z,-2.18
2022-12-15T07:41:19.076Z,-2.19
2022-12-15T07:43:47.063Z,-2.41
2022-12-15T07:46:14.155Z,-2.19
2022-12-15T07:48:41.074Z,-2.14
2022-12-15T07:51:15.318Z,-2.31
2022-12-15T07:53:50.006Z,-2.10
2022-12-15T07:56:18.398Z,-2.10
2022-12-15T07:58:45.461Z,-2.18
2022-12-15T08:01:14.285Z,-2.06
2022-12-15T08:03:41.711Z,-2.07
2022-12-15T08:06:12.446Z,-2.48
2022-12-15T08:08:40.338Z,-2.16
2022-12-15T08:11:10.210Z,-2.07
2022-12-15T08:14:02.098Z,-2.00
2022-12-15T08:16:25.680Z,-1.93
2022-12-15T08:18:52.753Z,-1.85
2022-12-15T08:21:19.684Z,-1.75
2022-12-15T08:23:46.784Z,-1.65
2022-12-15T08:26:17.115Z,-1.50
2022-12-15T08:28:45.068Z,-1.45
2022-12-15T08:31:20.353Z,-1.28
2022-12-15T08:33:48.469Z,-1.43
2022-12-15T08:36:18.471Z,-1.43
2022-12-15T08:38:46.827Z,-1.23
2022-12-15T08:41:19.629Z,-1.12
2022-12-15T08:43:49.259Z,-1.06
2022-12-15T08:46:28.013Z,-0.92
2022-12-15T08:48:55.618Z,-0.84
2022-12-15T08:51:25.381Z,-0.30
2022-12-15T08:53:52.756Z,0.56
2022-12-15T08:56:22.207Z,1.52
2022-12-15T08:58:51.007Z,2.32
2022-12-15T09:01:23.682Z,2.82
2022-12-15T09:03:56.272Z,2.87
2022-12-15T09:06:30.295Z,2.82
2022-12-15T09:09:00.339Z,2.88
2022-12-15T09:11:28.911Z,2.81
2022-12-15T09:13:56.483Z,2.75
2022-12-15T09:16:24.030Z,2.80
2022-12-15T09:18:54.679Z,2.47
2022-12-15T09:21:25.998Z,2.25
2022-12-15T09:23:55.795Z,2.19
2022-12-15T09:26:23.723Z,2.30
2022-12-15T09:28:51.148Z,2.35
2022-12-15T09:31:22.975Z,1.72
2022-12-15T09:33:52.469Z,1.62
2022-12-15T09:36:19.739Z,1.50
2022-12-15T09:38:47.874Z,1.09
2022-12-15T09:41:17.426Z,0.90
2022-12-15T09:44:15.912Z,0.85
2022-12-15T09:46:59.696Z,0.88
2022-12-15T09:49:55.319Z,0.99
2022-12-15T09:52:49.389Z,0.96
2022-12-15T09:55:24.827Z,0.92
2022-12-15T09:58:00.047Z,0.76
2022-12-15T10:00:55.267Z,0.26
2022-12-15T10:03:59.651Z,-0.10
2022-12-15T10:06:38.015Z,-0.67
2022-12-15T10:09:21.379Z,-0.73
2022-12-15T10:12:00.536Z,-0.69
2022-12-15T10:14:45.895Z,-0.86
2022-12-15T10:17:42.532Z,-0.79
2022-12-15T10:20:24.394Z,-0.85
2022-12-15T10:22:51.385Z,-0.85
2022-12-15T10:25:29.730Z,-1.00
2022-12-15T10:28:16.207Z,-0.72
2022-12-15T10:31:30.064Z,-0.43
2022-12-15T10:34:10.910Z,-0.47
2022-12-15T10:36:37.945Z,-0.45
2022-12-15T10:39:04.801Z,-0.52
2022-12-15T10:41:33.673Z,-0.45
2022-12-15T10:44:02.545Z,-0.44
2022-12-15T10:46:31.835Z,-0.36
2022-12-15T10:49:07.614Z,-0.35
2022-12-15T10:51:56.231Z,-0.59
2022-12-15T10:54:27.262Z,-0.79
2022-12-15T10:57:17.603Z,-0.63
2022-12-15T10:59:44.644Z,-0.60
2022-12-15T11:02:23.989Z,-0.91
2022-12-15T11:05:16.760Z,-1.23
2022-12-15T11:08:12.249Z,-1.11
2022-12-15T11:11:12.748Z,-0.93
2022-12-15T11:13:40.554Z,-1.25
2022-12-15T11:16:19.327Z,-1.31
2022-12-15T11:19:02.233Z,-1.46
2022-12-15T11:21:36.907Z,-1.53
2022-12-15T11:24:19.962Z,-1.69
2022-12-15T11:26:52.250Z,-1.48
2022-12-15T11:29:54.723Z,-1.53
2022-12-15T11:32:26.885Z,-1.30
2022-12-15T11:34:55.122Z,-1.06
2022-12-15T11:37:45.034Z,-1.39
2022-12-15T11:40:36.595Z,-1.33
2022-12-15T11:43:36.826Z,-1.32
2022-12-15T11:46:22.647Z,-1.21
2022-12-15T11:49:01.654Z,-1.28
2022-12-15T11:52:03.356Z,-1.25
2022-12-15T11:54:55.352Z,-1.29
2022-12-15T11:57:30.817Z,-1.35
2022-12-15T12:00:18.485Z,-1.31
2022-12-15T12:03:25.481Z,-1.34
2022-12-15T12:06:17.410Z,-1.39
2022-12-15T12:09:36.270Z,-1.36
2022-12-15T12:12:52.549Z,-1.22
2022-12-15T12:16:01.828Z,-1.27
2022-12-15T12:18:46.549Z,-1.39
2022-12-15T12:21:29.976Z,-1.19
2022-12-15T12:24:20.005Z,-1.41
2022-12-15T12:27:05.546Z,-1.67
2022-12-15T12:29:48.754Z,-1.70
2022-12-15T12:32:34.936Z,-1.64
2022-12-15T12:35:31.969Z,-1.49
2022-12-15T12:38:10.680Z,-1.55
2022-12-15T12:41:10.745Z,-1.77
2022-12-15T12:43:50.257Z,-1.82
2022-12-15T12:46:41.960Z,-1.76
2022-12-15T12:49:26.093Z,-1.86
2022-12-15T12:51:58.509Z,-1.80
2022-12-15T12:54:34.349Z,-1.63
2022-12-15T12:57:33.553Z,-1.59
2022-12-15T13:00:32.467Z,-1.64
2022-12-15T13:03:11.621Z,-1.62
2022-12-15T13:05:40.993Z,-1.72
2022-12-15T13:08:10.374Z,-1.70
2022-12-15T13:10:43.407Z,-1.72
2022-12-15T13:13:31.518Z,-1.68
2022-12-15T13:16:24.690Z,-1.52
2022-12-15T13:19:02.956Z,-1.42
2022-12-15T13:21:41.834Z,-1.20
2022-12-15T13:24:41.379Z,-1.06
2022-12-15T13:27:16.962Z,-1.13
2022-12-15T13:30:09.314Z,-1.36
2022-12-15T13:32:45.647Z,-1.40
2022-12-15T13:35:12.405Z,-1.61
2022-12-15T13:37:58.904Z,-1.46
2022-12-15T13:40:36.095Z,-1.51
2022-12-15T13:43:05.890Z,-1.43
2022-12-15T13:46:10.360Z,-1.45
2022-12-15T13:49:27.535Z,-1.41
2022-12-15T13:52:03.309Z,-1.59
2022-12-15T13:54:35.934Z,-1.45
2022-12-15T13:57:16.390Z,-1.46
2022-12-15T13:59:49.385Z,-1.41
2022-12-15T14:02:36.062Z,-1.51
2022-12-15T14:05:22.079Z,-1.34
2022-12-15T14:07:54.936Z,-1.43
2022-12-15T14:10:28.109Z,-1.59
2022-12-15T14:12:58.100Z,-1.49
2022-12-15T14:15:34.183Z,-1.44
2022-12-15T14:18:02.354Z,-1.63
2022-12-15T14:20:40.282Z,-1.81
2022-12-15T14:23:29.354Z,-1.81
2022-12-15T14:26:11.333Z,-1.82
2022-12-15T14:28:43.900Z,-1.80
2022-12-15T14:31:21.581Z,-1.78
2022-12-15T14:34:03.438Z,-1.87
2022-12-15T14:36:31.502Z,-1.82
2022-12-15T14:39:26.388Z,-1.84
2022-12-15T14:41:55.192Z,-1.73
2022-12-15T14:44:41.858Z,-1.76
2022-12-15T14:47:26.940Z,-1.68
2022-12-15T14:49:55.864Z,-1.79
2022-12-15T14:52:37.775Z,-1.86
2022-12-15T14:55:46.360Z,-1.79
2022-12-15T14:58:41.293Z,-1.90
2022-12-15T15:01:30.974Z,-1.88
2022-12-15T15:04:24.520Z,-1.72
2022-12-15T15:07:00.653Z,-1.84
2022-12-15T15:09:32.640Z,-1.99
2022-12-15T15:12:17.430Z,-1.79
2022-12-15T15:14:49.645Z,-1.98
2022-12-15T15:17:45.273Z,-1.97
2022-12-15T15:20:35.775Z,-1.96
2022-12-15T15:23:07.466Z,-1.84
2022-12-15T15:25:39.249Z,-1.93
2022-12-15T15:28:23.007Z,-1.94
2022-12-15T15:31:06.102Z,-1.95
2022-12-15T15:33:33.478Z,-2.04
2022-12-15T15:36:02.602Z,-2.00
2022-12-15T15:38:36.110Z,-2.15
2022-12-15T15:41:18.379Z,-2.06
2022-12-15T15:43:46.048Z,-2.13
2022-12-15T15:46:23.252Z,-2.19
2022-12-15T15:49:00.871Z,-2.32
2022-12-15T15:51:30.598Z,-2.22
2022-12-15T15:54:05.532Z,-2.36
2022-12-15T15:56:32.468Z,-2.28
2022-12-15T15:59:09.424Z,-2.45
2022-12-15T16:01:36.355Z,-2.43
2022-12-15T16:04:03.303Z,-2.49
2022-12-15T16:06:30.225Z,-2.42
2022-12-15T16:08:57.068Z,-2.43
2022-12-15T16:11:26.728Z,-2.49
2022-12-15T16:13:53.560Z,-2.50
2022-12-15T16:16:25.152Z,-2.46
2022-12-15T16:18:52.033Z,-2.43
2022-12-15T16:21:22.214Z,-2.50
2022-12-15T16:23:49.665Z,-2.72
2022-12-15T16:26:27.259Z,-2.69
2022-12-15T16:28:54.220Z,-2.64
2022-12-15T16:31:42.059Z,-2.50
2022-12-15T16:34:09.215Z,-2.45
2022-12-15T16:36:36.273Z,-2.45
2022-12-15T16:39:04.121Z,-2.51
2022-12-15T16:41:33.068Z,-2.54
2022-12-15T16:43:59.867Z,-2.38
2022-12-15T16:46:26.785Z,-2.34
2022-12-15T16:48:53.700Z,-2.54
2022-12-15T16:51:38.948Z,-2.38
2022-12-15T16:54:06.711Z,-2.46
2022-12-15T16:56:33.802Z,-2.40
2022-12-15T16:59:31.378Z,-2.63
2022-12-15T17:01:48.256Z,-2.51
2022-12-15T17:04:16.646Z,-2.66
2022-12-15T17:06:43.748Z,-2.65
2022-12-15T17:09:21.161Z,-2.38
2022-12-15T17:11:48.403Z,-2.36
2022-12-15T17:14:15.863Z,-2.41
2022-12-15T17:16:42.755Z,-2.34
2022-12-15T17:19:09.589Z,-2.31
2022-12-15T17:21:49.882Z,-2.34
2022-12-15T17:24:20.007Z,-2.14
2022-12-15T17:26:47.010Z,-2.33
2022-12-15T17:29:20.920Z,-2.31
2022-12-15T17:31:47.908Z,-2.29
2022-12-15T17:34:32.385Z,-2.37
2022-12-15T17:37:03.031Z,-2.33
2022-12-15T17:39:31.116Z,-2.27
2022-12-15T17:42:01.148Z,-2.22
2022-12-15T17:44:35.032Z,-2.32
2022-12-15T17:47:04.395Z,-2.26
2022-12-15T17:49:36.080Z,-2.41
2022-12-15T17:52:16.899Z,-2.27
2022-12-15T17:54:43.953Z,-2.19
2022-12-15T17:57:13.940Z,-2.37
2022-12-15T17:59:40.891Z,-2.49
2022-12-15T18:02:13.266Z,-2.55
2022-12-15T18:04:41.484Z,-2.49
2022-12-15T18:07:20.339Z,-2.52
2022-12-15T18:09:48.797Z,-2.33
2022-12-15T18:12:26.099Z,-2.43
2022-12-15T18:14:53.802Z,-2.50
2022-12-15T18:17:21.109Z,-2.34
2022-12-15T18:19:48.218Z,-2.25
2022-12-15T18:22:22.259Z,-2.45
2022-12-15T18:24:51.361Z,-2.19
2022-12-15T18:27:27.864Z,-2.38
2022-12-15T18:29:56.464Z,-2.52
2022-12-15T18:32:26.277Z,-2.35
2022-12-15T18:34:54.054Z,-2.23
2022-12-15T18:37:24.540Z,-2.25
2022-12-15T18:39:51.509Z,-2.21
2022-12-15T18:42:21.418Z,-2.33
2022-12-15T18:44:51.069Z,-2.35
2022-12-15T18:47:20.975Z,-2.31
2022-12-15T18:49:47.887Z,-2.39
2022-12-15T18:52:30.033Z,-2.32
2022-12-15T18:55:00.136Z,-2.49
2022-12-15T18:57:35.836Z,-2.47
2022-12-15T19:00:17.459Z,-2.44
2022-12-15T19:02:44.406Z,-2.32
2022-12-15T19:05:27.384Z,-2.35
2022-12-15T19:08:10.085Z,-2.33
2022-12-15T19:10:41.871Z,-2.39
2022-12-15T19:13:17.774Z,-2.44
2022-12-15T19:15:45.499Z,-2.41
2022-12-15T19:18:41.712Z,-2.43
2022-12-15T19:21:44.099Z,-2.33
2022-12-15T19:24:48.515Z,-2.24
2022-12-15T19:27:23.197Z,-2.44
2022-12-15T19:29:50.920Z,-2.38
2022-12-15T19:32:17.793Z,-2.29
2022-12-15T19:34:44.693Z,-2.40
2022-12-15T19:37:22.391Z,-2.23
2022-12-15T19:39:49.546Z,-2.10
2022-12-15T19:42:25.500Z,-2.25
2022-12-15T19:44:52.320Z,-2.12
2022-12-15T19:47:19.249Z,-2.11
2022-12-15T19:49:46.108Z,-2.18
2022-12-15T19:52:17.793Z,-1.97
2022-12-15T19:54:47.257Z,-2.03
2022-12-15T19:57:17.591Z,-2.04
2022-12-15T19:59:44.981Z,-2.20
2022-12-15T20:02:20.381Z,-2.05
2022-12-15T20:04:48.411Z,-2.07
2022-12-15T20:07:29.458Z,-2.03
2022-12-15T20:09:57.995Z,-2.17
2022-12-15T20:12:25.117Z,-2.09
2022-12-15T20:14:52.325Z,-2.12
2022-12-15T20:17:19.112Z,-2.04
2022-12-15T20:19:46.114Z,-2.09
2022-12-15T20:22:19.186Z,-2.05
2022-12-15T20:24:47.970Z,-2.20
2022-12-15T20:27:17.790Z,-2.18
2022-12-15T20:29:45.361Z,-2.10
2022-12-15T20:32:19.863Z,-2.18
2022-12-15T20:34:47.060Z,-2.14
2022-12-15T20:37:29.387Z,-2.07
2022-12-15T20:39:57.812Z,-2.11
2022-12-15T20:42:25.480Z,-2.18
2022-12-15T20:44:52.293Z,-1.95
2022-12-15T20:47:26.478Z,-2.00
2022-12-15T20:49:54.900Z,-2.13
2022-12-15T20:52:26.292Z,-2.13
2022-12-15T20:54:54.220Z,-2.08
2022-12-15T20:57:21.475Z,-2.23
2022-12-15T20:59:48.371Z,-2.19
2022-12-15T21:02:22.354Z,-2.24
2022-12-15T21:04:50.821Z,-2.09
2022-12-15T21:07:18.751Z,-2.17
2022-12-15T21:09:45.568Z,-2.06
2022-12-15T21:12:27.621Z,-2.14
2022-12-15T21:14:55.070Z,-2.11
2022-12-15T21:17:25.623Z,-2.11
2022-12-15T21:19:52.832Z,-2.22
2022-12-15T21:22:25.494Z,-2.29
2022-12-15T21:24:55.304Z,-2.23
2022-12-15T21:27:22.764Z,-2.30
2022-12-15T21:29:52.599Z,-2.28
2022-12-15T21:32:20.873Z,-2.27
2022-12-15T21:34:47.760Z,-2.31
2022-12-15T21:37:27.443Z,-2.34
2022-12-15T21:39:55.093Z,-2.30
2022-12-15T21:42:22.518Z,-2.16
2022-12-15T21:44:49.375Z,-2.11
2022-12-15T21:47:49.745Z,-1.99
2022-12-15T21:50:19.702Z,-2.14
2022-12-15T21:52:47.646Z,-2.11
2022-12-15T21:55:21.272Z,-2.26
2022-12-15T21:57:48.121Z,-2.26
2022-12-15T22:00:17.639Z,-2.41
2022-12-15T22:02:46.633Z,-2.25
2022-12-15T22:05:22.557Z,-2.23
2022-12-15T22:07:50.515Z,-2.23
2022-12-15T22:10:19.112Z,-2.19
2022-12-15T22:12:57.407Z,-2.28
2022-12-15T22:15:26.233Z,-2.14
2022-12-15T22:17:53.058Z,-2.01
2022-12-15T22:20:24.029Z,-2.15
2022-12-15T22:22:51.301Z,-2.26
2022-12-15T22:25:25.049Z,-2.26
2022-12-15T22:27:52.620Z,-2.27
2022-12-15T22:30:26.317Z,-2.22
2022-12-15T22:32:55.811Z,-2.22
2022-12-15T22:35:25.910Z,-2.22
2022-12-15T22:37:53.956Z,-2.41
2022-12-15T22:40:23.294Z,-2.30
2022-12-15T22:42:57.800Z,-2.27
2022-12-15T22:45:24.948Z,-2.26
2022-12-15T22:47:55.060Z,-2.27
2022-12-15T22:50:26.808Z,-2.36
2022-12-15T22:52:55.215Z,-2.39
2022-12-15T22:55:24.364Z,-2.37
2022-12-15T22:58:01.434Z,-2.49
2022-12-15T23:00:28.533Z,-2.47
2022-12-15T23:05:29.260Z,-2.45
2022-12-15T23:07:56.188Z,-2.52
2022-12-15T23:10:42.031Z,-2.47
2022-12-15T23:13:08.925Z,-2.40
2022-12-15T23:15:54.773Z,-2.50
2022-12-15T23:18:21.681Z,-2.50
2022-12-15T23:20:48.630Z,-2.47
2022-12-15T23:23:15.509Z,-2.60
2022-12-15T23:25:42.443Z,-2.42
2022-12-15T23:28:09.310Z,-2.52
2022-12-15T23:30:36.325Z,-2.56
2022-12-15T23:33:03.237Z,-2.48
2022-12-15T23:35:30.091Z,-2.48
2022-12-15T23:37:58.485Z,-2.40
2022-12-15T23:40:25.343Z,-2.57
2022-12-15T23:42:53.612Z,-2.58
2022-12-15T23:45:20.826Z,-2.49
2022-12-15T23:47:47.743Z,-2.57
2022-12-15T23:50:14.788Z,-2.55
2022-12-15T23:52:41.597Z,-2.66
2022-12-15T23:55:11.582Z,-2.63
2022-12-15T23:57:39.344Z,-2.57
